Accueil
METAR-TAF:

METAR-TAF

Aéroports :

Frontone, Italie

latitude: 43-31N, longitude: 012-44E, altitude: 570 m

Observation

Le bulletin a été fait il y a 1 heure et 14 minutes, à 14:55 UTC
Vent 6 kt de sud
Température 28°C
Humidité 37%
Pression 1012 hPa
Visibilité 10 km ou plus
Quelques nuages à une hauteur de 3500 ft

METAR: LIVF 161455Z 18006KT 9999 FEW035 28/12 Q1012

Heure: 18:09 (16:09 UTC)


TAF: absent

Observations et prévisions météorologiques de plus de 4000 aéroports (messages METAR et TAF).

Les stations disponibles sont représentées par des disques jaunes et rouges sur la carte.

Passer la souris dessus pour voir le nom de la station.

Cliquer dessus pour voir les observations et prévisions météorologiques.

Pour changer de carte: cliquez sur les boutons verts avec une croix noire pour zoomer, sur le bouton vert avec un tiret pour effectuer un zoom arrière, ou sur les flèches vertes pour les cartes adjacentes.


METAR-TAF: